Allentown, Pennsylvania
Current Conditions -  °F | °C
As of 7:55 PM on Wednesday 22 Oct 2014 (Local Time) from KXLL Reporting Station
Moderate Rain Moderate Rain  
Wind Chill: 11°   Ceiling: 3800
Heat Index: 11°   Visibility: 10mi
Dew Point:   Wind: 9mph
Humidity: 88%   Direction: 350°N
Pressure: 29.9"   Gusts: 16mph
Location:  40.6°N, 75.47°W
Report Text: KXLL 222355Z AUTO 35008G14KT 10SM RA SCT026 OVC038 11/09 A2990 RMK AO2 P0005
Loading
Personal Weather Stations






























Interactive Weather Map
Tropical Storm Tracking
New forecast layout! Learn more

10-Day Weather Forecast

Advertisements
Track Severe Weather on mobile